sensor_id;sensor_type;location;lat;lon;timestamp;pressure;altitude;pressure_sealevel;temperature;humidity
29941;BME280;16801;53.562;10.038;2024-01-15T00:01:23;99269.06;;;1.87;100.00
29941;BME280;16801;53.562;10.038;2024-01-15T00:04:44;99256.50;;;1.89;100.00
29941;BME280;16801;53.562;10.038;2024-01-15T00:08:05;99257.34;;;1.89;100.00
29941;BME280;16801;53.562;10.038;2024-01-15T00:11:27;99250.22;;;1.90;100.00
29941;BME280;16801;53.562;10.038;2024-01-15T00:14:48;99254.91;;;1.86;100.00
29941;BME280;16801;53.562;10.038;2024-01-15T00:18:10;99249.50;;;1.77;100.00
29941;BME280;16801;53.562;10.038;2024-01-15T00:21:31;99249.84;;;1.61;100.00
29941;BME280;16801;53.562;10.038;2024-01-15T00:24:52;99240.69;;;1.54;100.00
29941;BME280;16801;53.562;10.038;2024-01-15T00:28:12;99239.22;;;1.61;100.00
29941;BME280;16801;53.562;10.038;2024-01-15T00:31:34;99234.28;;;1.68;100.00
29941;BME280;16801;53.562;10.038;2024-01-15T00:34:56;99227.03;;;1.70;100.00
29941;BME280;16801;53.562;10.038;2024-01-15T00:38:17;99205.19;;;1.66;100.00
29941;BME280;16801;53.562;10.038;2024-01-15T00:41:38;99210.03;;;1.72;100.00
29941;BME280;16801;53.562;10.038;2024-01-15T00:44:59;99210.38;;;1.68;100.00
29941;BME280;16801;53.562;10.038;2024-01-15T00:48:20;99200.25;;;1.73;100.00
29941;BME280;16801;53.562;10.038;2024-01-15T00:51:42;99197.84;;;1.58;100.00
29941;BME280;16801;53.562;10.038;2024-01-15T00:55:04;99187.22;;;1.58;100.00
29941;BME280;16801;53.562;10.038;2024-01-15T00:58:25;99200.63;;;1.68;100.00
29941;BME280;16801;53.562;10.038;2024-01-15T01:01:46;99199.66;;;1.58;100.00
29941;BME280;16801;53.562;10.038;2024-01-15T01:05:07;99192.06;;;1.53;100.00
29941;BME280;16801;53.562;10.038;2024-01-15T01:08:29;99169.72;;;1.56;100.00
29941;BME280;16801;53.562;10.038;2024-01-15T01:11:50;99165.00;;;1.71;100.00
29941;BME280;16801;53.562;10.038;2024-01-15T01:15:11;99155.34;;;1.70;100.00
29941;BME280;16801;53.562;10.038;2024-01-15T01:18:31;99151.97;;;1.79;100.00
29941;BME280;16801;53.562;10.038;2024-01-15T01:21:52;99136.47;;;1.84;100.00
29941;BME280;16801;53.562;10.038;2024-01-15T01:25:15;99136.09;;;1.88;100.00
29941;BME280;16801;53.562;10.038;2024-01-15T01:28:35;99140.81;;;1.96;100.00
29941;BME280;16801;53.562;10.038;2024-01-15T01:31:57;99121.09;;;1.98;100.00
29941;BME280;16801;53.562;10.038;2024-01-15T01:35:18;99117.25;;;2.02;100.00
29941;BME280;16801;53.562;10.038;2024-01-15T01:38:40;99158.69;;;1.94;100.00
29941;BME280;16801;53.562;10.038;2024-01-15T01:42:02;99132.56;;;1.99;100.00
29941;BME280;16801;53.562;10.038;2024-01-15T01:45:23;99153.84;;;1.99;100.00
29941;BME280;16801;53.562;10.038;2024-01-15T01:48:44;99123.66;;;2.00;100.00
29941;BME280;16801;53.562;10.038;2024-01-15T01:52:05;99109.28;;;2.02;100.00
29941;BME280;16801;53.562;10.038;2024-01-15T01:55:27;99126.03;;;2.03;100.00
29941;BME280;16801;53.562;10.038;2024-01-15T01:58:51;99122.66;;;2.01;100.00
29941;BME280;16801;53.562;10.038;2024-01-15T02:02:12;99119.28;;;1.99;100.00
29941;BME280;16801;53.562;10.038;2024-01-15T02:05:34;99099.97;;;1.97;100.00
29941;BME280;16801;53.562;10.038;2024-01-15T02:08:56;99136.31;;;1.96;100.00
29941;BME280;16801;53.562;10.038;2024-01-15T02:12:17;99090.41;;;2.05;100.00
29941;BME280;16801;53.562;10.038;2024-01-15T02:15:39;99114.47;;;2.04;100.00
29941;BME280;16801;53.562;10.038;2024-01-15T02:19:00;99114.13;;;1.86;100.00
29941;BME280;16801;53.562;10.038;2024-01-15T02:22:21;99106.94;;;1.77;100.00
29941;BME280;16801;53.562;10.038;2024-01-15T02:25:44;99113.91;;;1.78;100.00
29941;BME280;16801;53.562;10.038;2024-01-15T02:29:07;99112.13;;;1.79;100.00
29941;BME280;16801;53.562;10.038;2024-01-15T02:32:28;99126.75;;;2.05;100.00
29941;BME280;16801;53.562;10.038;2024-01-15T02:35:49;99119.47;;;2.18;100.00
29941;BME280;16801;53.562;10.038;2024-01-15T02:39:10;99133.75;;;2.17;100.00
29941;BME280;16801;53.562;10.038;2024-01-15T02:42:32;99123.03;;;1.96;100.00
29941;BME280;16801;53.562;10.038;2024-01-15T02:45:53;99128.59;;;2.04;100.00
29941;BME280;16801;53.562;10.038;2024-01-15T02:49:15;99110.81;;;2.05;100.00
29941;BME280;16801;53.562;10.038;2024-01-15T02:52:36;99116.97;;;2.05;100.00
29941;BME280;16801;53.562;10.038;2024-01-15T02:55:57;99125.44;;;2.10;100.00
29941;BME280;16801;53.562;10.038;2024-01-15T02:59:19;99132.53;;;2.21;100.00
29941;BME280;16801;53.562;10.038;2024-01-15T03:02:40;99110.41;;;2.20;100.00
29941;BME280;16801;53.562;10.038;2024-01-15T03:06:03;99124.06;;;2.16;100.00
29941;BME280;16801;53.562;10.038;2024-01-15T03:09:24;99122.13;;;2.18;100.00
29941;BME280;16801;53.562;10.038;2024-01-15T03:12:46;99125.78;;;2.17;100.00
29941;BME280;16801;53.562;10.038;2024-01-15T03:16:08;99121.09;;;2.30;100.00
29941;BME280;16801;53.562;10.038;2024-01-15T03:19:29;99129.78;;;2.32;100.00
29941;BME280;16801;53.562;10.038;2024-01-15T03:22:50;99134.50;;;2.39;100.00
29941;BME280;16801;53.562;10.038;2024-01-15T03:26:11;99135.81;;;2.34;100.00
29941;BME280;16801;53.562;10.038;2024-01-15T03:29:32;99138.94;;;2.18;100.00
29941;BME280;16801;53.562;10.038;2024-01-15T03:32:54;99130.50;;;2.34;100.00
29941;BME280;16801;53.562;10.038;2024-01-15T03:36:15;99141.63;;;2.39;100.00
29941;BME280;16801;53.562;10.038;2024-01-15T03:39:36;99141.16;;;2.34;100.00
29941;BME280;16801;53.562;10.038;2024-01-15T03:42:57;99137.06;;;2.30;100.00
29941;BME280;16801;53.562;10.038;2024-01-15T03:46:18;99129.25;;;2.17;100.00
29941;BME280;16801;53.562;10.038;2024-01-15T03:49:40;99128.28;;;2.18;100.00
29941;BME280;16801;53.562;10.038;2024-01-15T03:53:01;99142.09;;;2.12;100.00
29941;BME280;16801;53.562;10.038;2024-01-15T03:56:22;99142.19;;;2.11;100.00
29941;BME280;16801;53.562;10.038;2024-01-15T03:59:43;99153.53;;;2.13;100.00
29941;BME280;16801;53.562;10.038;2024-01-15T04:03:06;99150.06;;;2.12;100.00
29941;BME280;16801;53.562;10.038;2024-01-15T04:06:29;99147.50;;;2.11;100.00
29941;BME280;16801;53.562;10.038;2024-01-15T04:09:49;99157.75;;;2.15;100.00
29941;BME280;16801;53.562;10.038;2024-01-15T04:13:10;99155.22;;;2.25;100.00
29941;BME280;16801;53.562;10.038;2024-01-15T04:16:31;99153.63;;;2.33;100.00
29941;BME280;16801;53.562;10.038;2024-01-15T04:19:52;99163.03;;;2.37;100.00
29941;BME280;16801;53.562;10.038;2024-01-15T04:23:14;99158.94;;;2.33;100.00
29941;BME280;16801;53.562;10.038;2024-01-15T04:26:35;99148.88;;;2.37;100.00
29941;BME280;16801;53.562;10.038;2024-01-15T04:29:56;99147.88;;;2.38;100.00
29941;BME280;16801;53.562;10.038;2024-01-15T04:33:17;99158.28;;;2.41;100.00
29941;BME280;16801;53.562;10.038;2024-01-15T04:36:39;99151.75;;;2.45;100.00
29941;BME280;16801;53.562;10.038;2024-01-15T04:40:02;99154.16;;;2.48;100.00
29941;BME280;16801;53.562;10.038;2024-01-15T04:43:23;99161.63;;;2.54;100.00
29941;BME280;16801;53.562;10.038;2024-01-15T04:46:44;99143.97;;;2.53;100.00
29941;BME280;16801;53.562;10.038;2024-01-15T04:50:06;99144.81;;;2.54;100.00
29941;BME280;16801;53.562;10.038;2024-01-15T04:53:26;99150.97;;;2.54;100.00
29941;BME280;16801;53.562;10.038;2024-01-15T04:56:49;99151.81;;;2.55;100.00
29941;BME280;16801;53.562;10.038;2024-01-15T05:00:11;99142.41;;;2.51;100.00
29941;BME280;16801;53.562;10.038;2024-01-15T05:03:32;99151.88;;;2.43;100.00
29941;BME280;16801;53.562;10.038;2024-01-15T05:06:53;99152.44;;;2.47;100.00
29941;BME280;16801;53.562;10.038;2024-01-15T05:10:14;99149.22;;;2.43;100.00
29941;BME280;16801;53.562;10.038;2024-01-15T05:13:37;99155.63;;;2.41;100.00
29941;BME280;16801;53.562;10.038;2024-01-15T05:16:57;99151.06;;;2.32;100.00
29941;BME280;16801;53.562;10.038;2024-01-15T05:20:18;99153.88;;;2.19;100.00
29941;BME280;16801;53.562;10.038;2024-01-15T05:23:40;99155.81;;;2.17;100.00
29941;BME280;16801;53.562;10.038;2024-01-15T05:27:02;99148.00;;;2.16;100.00
29941;BME280;16801;53.562;10.038;2024-01-15T05:30:24;99151.13;;;2.21;100.00
29941;BME280;16801;53.562;10.038;2024-01-15T05:33:45;99157.97;;;2.23;100.00
29941;BME280;16801;53.562;10.038;2024-01-15T05:37:06;99142.38;;;2.30;100.00
29941;BME280;16801;53.562;10.038;2024-01-15T05:40:27;99152.91;;;2.31;100.00
29941;BME280;16801;53.562;10.038;2024-01-15T05:43:48;99154.69;;;2.31;100.00
29941;BME280;16801;53.562;10.038;2024-01-15T05:47:10;99144.94;;;2.31;100.00
29941;BME280;16801;53.562;10.038;2024-01-15T05:50:31;99153.13;;;2.28;100.00
29941;BME280;16801;53.562;10.038;2024-01-15T05:53:52;99154.94;;;2.28;100.00
29941;BME280;16801;53.562;10.038;2024-01-15T05:57:13;99155.22;;;2.25;100.00
29941;BME280;16801;53.562;10.038;2024-01-15T06:00:34;99153.84;;;2.30;100.00
29941;BME280;16801;53.562;10.038;2024-01-15T06:03:56;99169.44;;;2.35;100.00
29941;BME280;16801;53.562;10.038;2024-01-15T06:07:17;99175.47;;;2.37;100.00
29941;BME280;16801;53.562;10.038;2024-01-15T06:10:38;99168.13;;;2.29;100.00
29941;BME280;16801;53.562;10.038;2024-01-15T06:14:00;99165.13;;;2.23;100.00
29941;BME280;16801;53.562;10.038;2024-01-15T06:17:20;99174.28;;;2.30;100.00
29941;BME280;16801;53.562;10.038;2024-01-15T06:20:43;99172.31;;;2.32;100.00
29941;BME280;16801;53.562;10.038;2024-01-15T06:24:04;99171.50;;;2.31;100.00
29941;BME280;16801;53.562;10.038;2024-01-15T06:27:25;99169.94;;;2.29;100.00
29941;BME280;16801;53.562;10.038;2024-01-15T06:30:46;99159.16;;;2.30;100.00
29941;BME280;16801;53.562;10.038;2024-01-15T06:34:06;99158.06;;;2.33;100.00
29941;BME280;16801;53.562;10.038;2024-01-15T06:37:29;99162.13;;;2.48;100.00
29941;BME280;16801;53.562;10.038;2024-01-15T06:40:52;99158.03;;;2.44;100.00
29941;BME280;16801;53.562;10.038;2024-01-15T06:44:12;99160.28;;;2.49;100.00
29941;BME280;16801;53.562;10.038;2024-01-15T06:47:34;99173.88;;;2.46;100.00
29941;BME280;16801;53.562;10.038;2024-01-15T06:50:55;99167.88;;;2.53;100.00
29941;BME280;16801;53.562;10.038;2024-01-15T06:54:17;99171.78;;;2.49;100.00
29941;BME280;16801;53.562;10.038;2024-01-15T06:57:38;99184.31;;;2.58;100.00
29941;BME280;16801;53.562;10.038;2024-01-15T07:00:59;99172.34;;;2.53;100.00
29941;BME280;16801;53.562;10.038;2024-01-15T07:04:20;99171.78;;;2.49;100.00
29941;BME280;16801;53.562;10.038;2024-01-15T07:07:41;99177.75;;;2.41;100.00
29941;BME280;16801;53.562;10.038;2024-01-15T07:11:05;99180.78;;;2.37;100.00
29941;BME280;16801;53.562;10.038;2024-01-15T07:14:26;99170.00;;;2.38;100.00
29941;BME280;16801;53.562;10.038;2024-01-15T07:17:47;99178.56;;;2.42;100.00
29941;BME280;16801;53.562;10.038;2024-01-15T07:21:08;99177.81;;;2.51;100.00
29941;BME280;16801;53.562;10.038;2024-01-15T07:24:29;99178.66;;;2.52;100.00
29941;BME280;16801;53.562;10.038;2024-01-15T07:27:51;99183.97;;;2.52;100.00
29941;BME280;16801;53.562;10.038;2024-01-15T07:31:15;99187.56;;;2.62;100.00
29941;BME280;16801;53.562;10.038;2024-01-15T07:34:36;99199.25;;;2.70;100.00
29941;BME280;16801;53.562;10.038;2024-01-15T07:37:57;99196.06;;;2.76;100.00
29941;BME280;16801;53.562;10.038;2024-01-15T07:41:18;99195.56;;;2.82;100.00
29941;BME280;16801;53.562;10.038;2024-01-15T07:44:40;99195.69;;;2.81;100.00
29941;BME280;16801;53.562;10.038;2024-01-15T07:48:01;99188.75;;;2.89;100.00
29941;BME280;16801;53.562;10.038;2024-01-15T07:51:23;99192.84;;;2.93;100.00
29941;BME280;16801;53.562;10.038;2024-01-15T07:54:44;99204.13;;;2.86;100.00
29941;BME280;16801;53.562;10.038;2024-01-15T07:58:05;99202.69;;;2.82;100.00
29941;BME280;16801;53.562;10.038;2024-01-15T08:01:27;99208.22;;;2.90;100.00
29941;BME280;16801;53.562;10.038;2024-01-15T08:04:48;99215.81;;;2.94;100.00
29941;BME280;16801;53.562;10.038;2024-01-15T08:08:09;99210.47;;;2.94;100.00
29941;BME280;16801;53.562;10.038;2024-01-15T08:11:30;99210.47;;;2.94;100.00
29941;BME280;16801;53.562;10.038;2024-01-15T08:14:51;99204.19;;;2.95;100.00
29941;BME280;16801;53.562;10.038;2024-01-15T08:18:13;99203.50;;;2.93;100.00
29941;BME280;16801;53.562;10.038;2024-01-15T08:21:34;99209.44;;;2.86;100.00
29941;BME280;16801;53.562;10.038;2024-01-15T08:24:55;99208.72;;;2.84;100.00
29941;BME280;16801;53.562;10.038;2024-01-15T08:28:16;99208.41;;;2.77;100.00
29941;BME280;16801;53.562;10.038;2024-01-15T08:31:37;99221.41;;;2.91;100.00
29941;BME280;16801;53.562;10.038;2024-01-15T08:34:59;99235.03;;;2.77;100.00
29941;BME280;16801;53.562;10.038;2024-01-15T08:38:22;99227.53;;;2.71;100.00
29941;BME280;16801;53.562;10.038;2024-01-15T08:41:45;99242.91;;;2.68;100.00
29941;BME280;16801;53.562;10.038;2024-01-15T08:45:07;99243.69;;;2.59;100.00
29941;BME280;16801;53.562;10.038;2024-01-15T08:48:28;99253.28;;;2.39;100.00
29941;BME280;16801;53.562;10.038;2024-01-15T08:51:50;99260.91;;;2.32;100.00
29941;BME280;16801;53.562;10.038;2024-01-15T08:55:11;99266.66;;;2.49;100.00
29941;BME280;16801;53.562;10.038;2024-01-15T08:58:33;99256.88;;;2.49;100.00
29941;BME280;16801;53.562;10.038;2024-01-15T09:01:54;99264.78;;;2.39;100.00
29941;BME280;16801;53.562;10.038;2024-01-15T09:05:16;99260.03;;;2.43;100.00
29941;BME280;16801;53.562;10.038;2024-01-15T09:08:39;99251.72;;;2.36;100.00
29941;BME280;16801;53.562;10.038;2024-01-15T09:12:00;99258.50;;;2.29;100.00
29941;BME280;16801;53.562;10.038;2024-01-15T09:15:21;99269.16;;;2.29;100.00
29941;BME280;16801;53.562;10.038;2024-01-15T09:18:42;99270.91;;;2.40;100.00
29941;BME280;16801;53.562;10.038;2024-01-15T09:22:03;99278.66;;;2.32;100.00
29941;BME280;16801;53.562;10.038;2024-01-15T09:25:26;99285.53;;;2.46;100.00
29941;BME280;16801;53.562;10.038;2024-01-15T09:28:47;99282.97;;;2.55;100.00
29941;BME280;16801;53.562;10.038;2024-01-15T09:32:08;99297.13;;;2.44;100.00
29941;BME280;16801;53.562;10.038;2024-01-15T09:35:29;99296.03;;;2.58;100.00
29941;BME280;16801;53.562;10.038;2024-01-15T09:38:50;99298.03;;;2.66;100.00
29941;BME280;16801;53.562;10.038;2024-01-15T09:42:12;99312.34;;;2.65;100.00
29941;BME280;16801;53.562;10.038;2024-01-15T09:45:33;99325.13;;;2.71;100.00
29941;BME280;16801;53.562;10.038;2024-01-15T09:48:54;99319.47;;;2.64;100.00
29941;BME280;16801;53.562;10.038;2024-01-15T09:52:16;99324.63;;;2.77;100.00
29941;BME280;16801;53.562;10.038;2024-01-15T09:55:39;99328.59;;;2.82;100.00
29941;BME280;16801;53.562;10.038;2024-01-15T09:59:02;99323.50;;;2.36;100.00
29941;BME280;16801;53.562;10.038;2024-01-15T10:02:23;99344.78;;;2.14;100.00
29941;BME280;16801;53.562;10.038;2024-01-15T10:05:44;99347.91;;;2.19;100.00
29941;BME280;16801;53.562;10.038;2024-01-15T10:09:05;99342.09;;;2.25;100.00
29941;BME280;16801;53.562;10.038;2024-01-15T10:12:27;99345.47;;;2.27;100.00
29941;BME280;16801;53.562;10.038;2024-01-15T10:15:49;99342.22;;;2.35;100.00
29941;BME280;16801;53.562;10.038;2024-01-15T10:19:10;99341.03;;;2.39;100.00
29941;BME280;16801;53.562;10.038;2024-01-15T10:22:31;99344.53;;;2.28;100.00
29941;BME280;16801;53.562;10.038;2024-01-15T10:25:52;99327.22;;;2.34;100.00
29941;BME280;16801;53.562;10.038;2024-01-15T10:29:14;99346.34;;;2.28;100.00
29941;BME280;16801;53.562;10.038;2024-01-15T10:32:36;99355.75;;;2.32;100.00
29941;BME280;16801;53.562;10.038;2024-01-15T10:35:58;99350.94;;;2.26;100.00
29941;BME280;16801;53.562;10.038;2024-01-15T10:39:20;99360.13;;;2.33;100.00
29941;BME280;16801;53.562;10.038;2024-01-15T10:42:41;99367.72;;;2.26;100.00
29941;BME280;16801;53.562;10.038;2024-01-15T10:46:03;99364.34;;;2.24;100.00
29941;BME280;16801;53.562;10.038;2024-01-15T10:49:28;99365.19;;;2.36;100.00
29941;BME280;16801;53.562;10.038;2024-01-15T10:52:50;99365.06;;;2.15;100.00
29941;BME280;16801;53.562;10.038;2024-01-15T10:56:11;99375.69;;;2.15;100.00
29941;BME280;16801;53.562;10.038;2024-01-15T10:59:33;99377.03;;;2.10;100.00
29941;BME280;16801;53.562;10.038;2024-01-15T11:02:54;99377.75;;;1.90;100.00
29941;BME280;16801;53.562;10.038;2024-01-15T11:06:17;99377.28;;;1.96;100.00
29941;BME280;16801;53.562;10.038;2024-01-15T11:09:39;99371.59;;;2.11;100.00
29941;BME280;16801;53.562;10.038;2024-01-15T11:13:00;99376.31;;;2.08;100.00
29941;BME280;16801;53.562;10.038;2024-01-15T11:16:20;99373.66;;;2.08;100.00
29941;BME280;16801;53.562;10.038;2024-01-15T11:19:46;99383.06;;;2.12;100.00
29941;BME280;16801;53.562;10.038;2024-01-15T11:23:09;99384.63;;;2.25;100.00
29941;BME280;16801;53.562;10.038;2024-01-15T11:26:32;99378.84;;;2.42;100.00
29941;BME280;16801;53.562;10.038;2024-01-15T11:30:03;99381.63;;;2.41;100.00
29941;BME280;16801;53.562;10.038;2024-01-15T11:33:32;99381.63;;;2.30;100.00
29941;BME280;16801;53.562;10.038;2024-01-15T11:37:02;99385.03;;;2.21;100.00
29941;BME280;16801;53.562;10.038;2024-01-15T11:40:38;99382.34;;;2.43;100.00
29941;BME280;16801;53.562;10.038;2024-01-15T11:43:59;99377.38;;;2.61;100.00
29941;BME280;16801;53.562;10.038;2024-01-15T11:47:38;99388.00;;;2.72;100.00
29941;BME280;16801;53.562;10.038;2024-01-15T11:51:08;99391.13;;;2.77;100.00
29941;BME280;16801;53.562;10.038;2024-01-15T11:54:32;99400.28;;;2.84;100.00
29941;BME280;16801;53.562;10.038;2024-01-15T11:57:57;99395.59;;;2.87;100.00
29941;BME280;16801;53.562;10.038;2024-01-15T12:01:21;99397.75;;;2.82;100.00
29941;BME280;16801;53.562;10.038;2024-01-15T12:04:42;99400.06;;;2.76;100.00
29941;BME280;16801;53.562;10.038;2024-01-15T12:08:03;99401.31;;;2.61;100.00
29941;BME280;16801;53.562;10.038;2024-01-15T12:11:30;99399.13;;;2.66;100.00
29941;BME280;16801;53.562;10.038;2024-01-15T12:14:54;99400.34;;;2.73;100.00
29941;BME280;16801;53.562;10.038;2024-01-15T12:18:16;99410.63;;;2.66;100.00
29941;BME280;16801;53.562;10.038;2024-01-15T12:21:39;99411.22;;;2.70;100.00
29941;BME280;16801;53.562;10.038;2024-01-15T12:24:59;99421.97;;;2.57;100.00
29941;BME280;16801;53.562;10.038;2024-01-15T12:28:20;99427.28;;;2.57;100.00
29941;BME280;16801;53.562;10.038;2024-01-15T12:31:46;99425.72;;;2.66;100.00
29941;BME280;16801;53.562;10.038;2024-01-15T12:35:07;99430.44;;;2.73;100.00
29941;BME280;16801;53.562;10.038;2024-01-15T12:38:28;99438.75;;;2.80;100.00
29941;BME280;16801;53.562;10.038;2024-01-15T12:41:49;99440.34;;;2.82;100.00
29941;BME280;16801;53.562;10.038;2024-01-15T12:45:12;99454.63;;;2.70;100.00
29941;BME280;16801;53.562;10.038;2024-01-15T12:48:34;99447.88;;;2.44;100.00
29941;BME280;16801;53.562;10.038;2024-01-15T12:51:57;99443.16;;;2.48;100.00
29941;BME280;16801;53.562;10.038;2024-01-15T12:55:18;99451.59;;;2.41;100.00
29941;BME280;16801;53.562;10.038;2024-01-15T12:58:39;99450.53;;;2.44;100.00
29941;BME280;16801;53.562;10.038;2024-01-15T13:02:00;99457.75;;;2.31;100.00
29941;BME280;16801;53.562;10.038;2024-01-15T13:05:22;99444.97;;;2.58;100.00
29941;BME280;16801;53.562;10.038;2024-01-15T13:08:43;99446.16;;;2.43;100.00
29941;BME280;16801;53.562;10.038;2024-01-15T13:12:05;99449.94;;;2.63;100.00
29941;BME280;16801;53.562;10.038;2024-01-15T13:15:26;99459.09;;;2.70;100.00
29941;BME280;16801;53.562;10.038;2024-01-15T13:18:47;99454.41;;;2.73;100.00
29941;BME280;16801;53.562;10.038;2024-01-15T13:22:10;99469.72;;;2.81;100.00
29941;BME280;16801;53.562;10.038;2024-01-15T13:25:33;99464.53;;;2.79;100.00
29941;BME280;16801;53.562;10.038;2024-01-15T13:28:55;99469.59;;;2.82;100.00
29941;BME280;16801;53.562;10.038;2024-01-15T13:32:22;99472.13;;;2.95;100.00
29941;BME280;16801;53.562;10.038;2024-01-15T13:35:45;99472.53;;;2.68;100.00
29941;BME280;16801;53.562;10.038;2024-01-15T13:39:10;99475.41;;;2.76;100.00
29941;BME280;16801;53.562;10.038;2024-01-15T13:42:31;99482.06;;;2.82;100.00
29941;BME280;16801;53.562;10.038;2024-01-15T13:45:52;99484.38;;;2.75;100.00
29941;BME280;16801;53.562;10.038;2024-01-15T13:49:13;99489.44;;;2.78;100.00
29941;BME280;16801;53.562;10.038;2024-01-15T13:52:35;99493.91;;;2.78;100.00
29941;BME280;16801;53.562;10.038;2024-01-15T13:55:57;99497.56;;;2.88;100.00
29941;BME280;16801;53.562;10.038;2024-01-15T13:59:18;99495.63;;;2.90;100.00
29941;BME280;16801;53.562;10.038;2024-01-15T14:02:39;99490.53;;;2.87;100.00
29941;BME280;16801;53.562;10.038;2024-01-15T14:06:00;99497.44;;;2.56;100.00
29941;BME280;16801;53.562;10.038;2024-01-15T14:09:22;99501.53;;;2.49;100.00
29941;BME280;16801;53.562;10.038;2024-01-15T14:12:46;99498.13;;;2.69;100.00
29941;BME280;16801;53.562;10.038;2024-01-15T14:16:07;99503.22;;;2.72;100.00
29941;BME280;16801;53.562;10.038;2024-01-15T14:19:29;99504.91;;;2.84;100.00
29941;BME280;16801;53.562;10.038;2024-01-15T14:22:49;99517.84;;;2.56;100.00
29941;BME280;16801;53.562;10.038;2024-01-15T14:26:10;99507.22;;;2.67;100.00
29941;BME280;16801;53.562;10.038;2024-01-15T14:29:33;99514.97;;;2.59;100.00
29941;BME280;16801;53.562;10.038;2024-01-15T14:32:54;99521.00;;;2.50;100.00
29941;BME280;16801;53.562;10.038;2024-01-15T14:36:15;99526.44;;;2.70;100.00
29941;BME280;16801;53.562;10.038;2024-01-15T14:39:36;99523.88;;;2.35;100.00
29941;BME280;16801;53.562;10.038;2024-01-15T14:42:57;99537.91;;;2.37;100.00
29941;BME280;16801;53.562;10.038;2024-01-15T14:46:19;99540.47;;;2.50;100.00
29941;BME280;16801;53.562;10.038;2024-01-15T14:49:40;99542.38;;;2.37;100.00
29941;BME280;16801;53.562;10.038;2024-01-15T14:53:01;99538.25;;;2.33;100.00
29941;BME280;16801;53.562;10.038;2024-01-15T14:56:22;99549.66;;;2.11;100.00
29941;BME280;16801;53.562;10.038;2024-01-15T14:59:43;99549.59;;;2.00;100.00
29941;BME280;16801;53.562;10.038;2024-01-15T15:03:05;99558.81;;;2.07;100.00
29941;BME280;16801;53.562;10.038;2024-01-15T15:06:26;99571.31;;;1.94;100.00
29941;BME280;16801;53.562;10.038;2024-01-15T15:09:47;99566.72;;;1.85;100.00
29941;BME280;16801;53.562;10.038;2024-01-15T15:13:10;99571.22;;;1.72;100.00
29941;BME280;16801;53.562;10.038;2024-01-15T15:16:31;99573.88;;;1.72;100.00
29941;BME280;16801;53.562;10.038;2024-01-15T15:19:53;99568.69;;;1.71;100.00
29941;BME280;16801;53.562;10.038;2024-01-15T15:23:14;99580.09;;;1.84;100.00
29941;BME280;16801;53.562;10.038;2024-01-15T15:26:35;99593.72;;;1.79;100.00
29941;BME280;16801;53.562;10.038;2024-01-15T15:29:57;99598.53;;;1.74;100.00
29941;BME280;16801;53.562;10.038;2024-01-15T15:33:18;99599.03;;;1.79;100.00
29941;BME280;16801;53.562;10.038;2024-01-15T15:36:40;99608.63;;;1.69;100.00
29941;BME280;16801;53.562;10.038;2024-01-15T15:40:01;99612.13;;;1.70;100.00
29941;BME280;16801;53.562;10.038;2024-01-15T15:43:24;99608.69;;;1.80;100.00
29941;BME280;16801;53.562;10.038;2024-01-15T15:46:44;99613.28;;;1.78;100.00
29941;BME280;16801;53.562;10.038;2024-01-15T15:50:07;99626.84;;;1.86;100.00
29941;BME280;16801;53.562;10.038;2024-01-15T15:53:29;99621.53;;;1.86;100.00
29941;BME280;16801;53.562;10.038;2024-01-15T15:56:50;99629.00;;;1.81;100.00
29941;BME280;16801;53.562;10.038;2024-01-15T16:00:12;99648.13;;;1.74;100.00
29941;BME280;16801;53.562;10.038;2024-01-15T16:03:33;99652.91;;;1.81;100.00
29941;BME280;16801;53.562;10.038;2024-01-15T16:06:54;99648.09;;;1.86;100.00
29941;BME280;16801;53.562;10.038;2024-01-15T16:10:17;99651.13;;;1.69;100.00
29941;BME280;16801;53.562;10.038;2024-01-15T16:13:39;99663.16;;;1.62;100.00
29941;BME280;16801;53.562;10.038;2024-01-15T16:17:00;99645.91;;;1.44;100.00
29941;BME280;16801;53.562;10.038;2024-01-15T16:20:21;99657.63;;;1.52;100.00
29941;BME280;16801;53.562;10.038;2024-01-15T16:23:42;99652.13;;;1.55;100.00
29941;BME280;16801;53.562;10.038;2024-01-15T16:27:05;99663.69;;;1.54;100.00
29941;BME280;16801;53.562;10.038;2024-01-15T16:30:26;99671.78;;;1.53;100.00
29941;BME280;16801;53.562;10.038;2024-01-15T16:33:46;99676.44;;;1.62;100.00
29941;BME280;16801;53.562;10.038;2024-01-15T16:37:07;99665.41;;;1.55;100.00
29941;BME280;16801;53.562;10.038;2024-01-15T16:40:29;99671.13;;;1.62;100.00
29941;BME280;16801;53.562;10.038;2024-01-15T16:43:51;99669.34;;;1.50;100.00
29941;BME280;16801;53.562;10.038;2024-01-15T16:47:12;99674.13;;;1.32;100.00
29941;BME280;16801;53.562;10.038;2024-01-15T16:50:33;99680.81;;;1.38;100.00
29941;BME280;16801;53.562;10.038;2024-01-15T16:53:54;99687.22;;;1.35;100.00
29941;BME280;16801;53.562;10.038;2024-01-15T16:57:15;99687.41;;;1.45;100.00
29941;BME280;16801;53.562;10.038;2024-01-15T17:00:37;99683.38;;;1.39;100.00
29941;BME280;16801;53.562;10.038;2024-01-15T17:03:58;99692.59;;;1.46;100.00
29941;BME280;16801;53.562;10.038;2024-01-15T17:07:19;99703.31;;;1.45;100.00
29941;BME280;16801;53.562;10.038;2024-01-15T17:10:40;99698.03;;;1.45;100.00
29941;BME280;16801;53.562;10.038;2024-01-15T17:14:02;99708.31;;;1.49;100.00
29941;BME280;16801;53.562;10.038;2024-01-15T17:17:25;99714.69;;;1.34;100.00
29941;BME280;16801;53.562;10.038;2024-01-15T17:20:46;99721.19;;;1.30;100.00
29941;BME280;16801;53.562;10.038;2024-01-15T17:24:07;99725.63;;;1.17;100.00
29941;BME280;16801;53.562;10.038;2024-01-15T17:27:28;99734.00;;;1.24;100.00
29941;BME280;16801;53.562;10.038;2024-01-15T17:30:49;99727.78;;;1.25;100.00
29941;BME280;16801;53.562;10.038;2024-01-15T17:34:11;99728.50;;;1.27;100.00